createdAt,value
2022-09-02T00:01:31.395Z,73.21
2022-09-02T00:04:05.443Z,73.09
2022-09-02T00:06:33.283Z,73.12
2022-09-02T00:09:01.056Z,72.88
2022-09-02T00:11:30.856Z,73.04
2022-09-02T00:13:58.567Z,72.93
2022-09-02T00:16:26.086Z,73.31
2022-09-02T00:18:53.755Z,72.88
2022-09-02T00:21:21.665Z,72.91
2022-09-02T00:23:48.672Z,72.98
2022-09-02T00:26:15.397Z,72.49
2022-09-02T00:28:51.176Z,72.78
2022-09-02T00:31:24.974Z,72.40
2022-09-02T00:33:51.996Z,72.68
2022-09-02T00:36:19.191Z,72.81
2022-09-02T00:38:46.019Z,72.80
2022-09-02T00:41:13.683Z,72.51
2022-09-02T00:43:56.487Z,72.34
2022-09-02T00:46:26.109Z,72.52
2022-09-02T00:49:08.538Z,72.71
2022-09-02T00:51:44.740Z,72.50
2022-09-02T00:54:13.860Z,73.13
2022-09-02T00:56:43.776Z,73.52
2022-09-02T00:59:15.882Z,73.54
2022-09-02T01:01:42.614Z,73.11
2022-09-02T01:04:12.431Z,73.31
2022-09-02T01:06:39.908Z,73.56
2022-09-02T01:09:12.044Z,73.64
2022-09-02T01:11:47.971Z,73.50
2022-09-02T01:14:16.613Z,73.07
2022-09-02T01:16:50.439Z,73.53
2022-09-02T01:19:33.743Z,73.22
2022-09-02T01:22:01.164Z,73.61
2022-09-02T01:24:31.750Z,73.43
2022-09-02T01:26:59.289Z,73.22
2022-09-02T01:29:27.832Z,73.46
2022-09-02T01:31:54.893Z,73.37
2022-09-02T01:34:21.548Z,73.90
2022-09-02T01:36:48.189Z,73.97
2022-09-02T01:39:15.555Z,73.62
2022-09-02T01:41:43.187Z,73.79
2022-09-02T01:44:10.526Z,74.27
2022-09-02T01:46:37.296Z,73.73
2022-09-02T01:49:04.703Z,74.08
2022-09-02T01:51:31.438Z,73.87
2022-09-02T01:53:59.040Z,74.52
2022-09-02T01:56:25.720Z,74.15
2022-09-02T01:58:52.798Z,74.02
2022-09-02T02:01:20.134Z,74.39
2022-09-02T02:03:47.786Z,73.93
2022-09-02T02:06:17.596Z,74.50
2022-09-02T02:08:45.282Z,74.13
2022-09-02T02:11:18.838Z,73.97
2022-09-02T02:13:49.780Z,74.14
2022-09-02T02:16:16.914Z,74.08
2022-09-02T02:18:43.602Z,74.33
2022-09-02T02:21:11.256Z,73.84
2022-09-02T02:23:37.951Z,74.44
2022-09-02T02:26:06.526Z,73.96
2022-09-02T02:28:33.342Z,74.24
2022-09-02T02:31:02.732Z,74.50
2022-09-02T02:33:30.530Z,74.63
2022-09-02T02:36:06.085Z,74.45
2022-09-02T02:38:37.680Z,74.20
2022-09-02T02:41:06.348Z,74.16
2022-09-02T02:43:34.421Z,73.81
2022-09-02T02:46:01.196Z,74.41
2022-09-02T02:48:27.878Z,73.95
2022-09-02T02:50:54.975Z,74.12
2022-09-02T02:53:21.735Z,74.09
2022-09-02T02:55:49.844Z,74.28
2022-09-02T02:58:17.444Z,74.08
2022-09-02T03:00:45.556Z,73.77
2022-09-02T03:03:14.906Z,74.35
2022-09-02T03:05:41.548Z,74.50
2022-09-02T03:08:10.452Z,74.09
2022-09-02T03:10:41.184Z,74.29
2022-09-02T03:13:10.480Z,73.62
2022-09-02T03:15:39.488Z,74.10
2022-09-02T03:18:06.365Z,74.43
2022-09-02T03:20:33.180Z,74.45
2022-09-02T03:23:04.686Z,74.52
2022-09-02T03:25:35.916Z,74.11
2022-09-02T03:28:10.164Z,74.18
2022-09-02T03:30:39.696Z,74.31
2022-09-02T03:33:07.083Z,74.29
2022-09-02T03:35:39.573Z,74.23
2022-09-02T03:38:07.800Z,74.94
2022-09-02T03:40:34.927Z,74.57
2022-09-02T03:43:02.264Z,74.42
2022-09-02T03:45:30.982Z,74.60
2022-09-02T03:48:02.301Z,74.20
2022-09-02T03:50:37.771Z,74.36
2022-09-02T03:53:05.640Z,74.66
2022-09-02T03:55:33.343Z,74.61
2022-09-02T03:58:03.402Z,74.54
2022-09-02T04:00:33.598Z,74.64
2022-09-02T04:03:03.872Z,74.85
2022-09-02T04:05:31.819Z,75.11
2022-09-02T04:08:00.659Z,75.77
2022-09-02T04:10:28.497Z,75.35
2022-09-02T04:12:55.551Z,75.69
2022-09-02T04:15:22.703Z,75.99
2022-09-02T04:17:50.909Z,76.17
2022-09-02T04:20:20.114Z,75.68
2022-09-02T04:22:46.752Z,76.23
2022-09-02T04:25:13.571Z,76.01
2022-09-02T04:27:40.790Z,76.46
2022-09-02T04:30:09.175Z,76.13
2022-09-02T04:32:40.906Z,76.06
2022-09-02T04:35:09.187Z,76.18
2022-09-02T04:37:36.952Z,76.01
2022-09-02T04:40:04.492Z,76.39
2022-09-02T04:42:31.197Z,76.29
2022-09-02T04:44:57.992Z,76.08
2022-09-02T04:47:26.697Z,76.45
2022-09-02T04:49:54.242Z,76.13
2022-09-02T04:52:21.530Z,75.96
2022-09-02T04:54:48.932Z,76.74
2022-09-02T04:57:16.608Z,76.29
2022-09-02T04:59:44.069Z,76.37
2022-09-02T05:02:12.133Z,76.63
2022-09-02T05:04:39.889Z,76.70
2022-09-02T05:07:13.181Z,76.50
2022-09-02T05:09:44.436Z,76.00
2022-09-02T05:12:11.532Z,76.50
2022-09-02T05:14:43.895Z,76.57
2022-09-02T05:17:10.922Z,76.49
2022-09-02T05:19:41.430Z,76.30
2022-09-02T05:22:08.420Z,76.20
2022-09-02T05:24:38.580Z,75.73
2022-09-02T05:27:09.835Z,76.34
2022-09-02T05:29:36.979Z,76.15
2022-09-02T05:32:04.972Z,75.71
2022-09-02T05:34:33.467Z,75.96
2022-09-02T05:37:03.379Z,75.33
2022-09-02T05:39:32.630Z,75.77
2022-09-02T05:42:00.665Z,75.22
2022-09-02T05:44:29.211Z,75.27
2022-09-02T05:46:57.153Z,75.03
2022-09-02T05:49:23.852Z,75.43
2022-09-02T05:51:58.654Z,74.92
2022-09-02T05:54:36.845Z,74.79
2022-09-02T05:57:11.574Z,74.73
2022-09-02T05:59:44.135Z,74.88
2022-09-02T06:02:19.151Z,74.55
2022-09-02T06:04:47.000Z,74.89
2022-09-02T06:07:16.145Z,74.21
2022-09-02T06:09:45.747Z,74.71
2022-09-02T06:12:14.842Z,74.09
2022-09-02T06:14:42.877Z,74.36
2022-09-02T06:17:10.813Z,73.54
2022-09-02T06:19:47.319Z,74.14
2022-09-02T06:22:14.630Z,73.84
2022-09-02T06:24:42.799Z,74.43
2022-09-02T06:27:15.735Z,73.52
2022-09-02T06:29:46.044Z,73.64
2022-09-02T06:32:15.774Z,73.81
2022-09-02T06:34:42.381Z,73.68
2022-09-02T06:37:09.015Z,74.33
2022-09-02T06:39:43.817Z,73.97
2022-09-02T06:42:16.016Z,73.98
2022-09-02T06:44:58.802Z,73.93
2022-09-02T06:47:25.439Z,74.26
2022-09-02T06:49:52.069Z,74.27
2022-09-02T06:52:20.927Z,73.83
2022-09-02T06:54:50.007Z,73.46
2022-09-02T06:57:17.295Z,73.81
2022-09-02T06:59:44.255Z,73.99
2022-09-02T07:02:12.577Z,73.69
2022-09-02T07:05:00.113Z,73.51
2022-09-02T07:07:26.785Z,73.83
2022-09-02T07:10:00.604Z,73.52
2022-09-02T07:12:27.896Z,73.25
2022-09-02T07:15:08.698Z,73.65
2022-09-02T07:17:38.880Z,73.34
2022-09-02T07:20:10.438Z,73.42
2022-09-02T07:22:48.885Z,73.12
2022-09-02T07:25:18.855Z,73.36
2022-09-02T07:27:47.851Z,73.41
2022-09-02T07:30:14.600Z,72.88
2022-09-02T07:32:44.347Z,72.62
2022-09-02T07:35:11.063Z,72.23
2022-09-02T07:37:38.578Z,72.28
2022-09-02T07:40:11.519Z,72.02
2022-09-02T07:42:38.681Z,71.52
2022-09-02T07:45:06.761Z,70.79
2022-09-02T07:47:34.686Z,70.54
2022-09-02T07:50:21.503Z,70.30
2022-09-02T07:52:58.162Z,69.80
2022-09-02T07:55:27.041Z,69.68
2022-09-02T07:57:55.526Z,69.77
2022-09-02T08:00:27.413Z,69.48
2022-09-02T08:02:57.184Z,69.56
2022-09-02T08:05:29.489Z,69.21
2022-09-02T08:07:56.064Z,69.00
2022-09-02T08:10:25.893Z,67.86
2022-09-02T08:12:52.983Z,67.48
2022-09-02T08:15:22.525Z,67.26
2022-09-02T08:17:49.618Z,67.60
2022-09-02T08:20:17.520Z,67.18
2022-09-02T08:22:47.947Z,66.56
2022-09-02T08:25:21.176Z,66.23
2022-09-02T08:27:47.847Z,65.70
2022-09-02T08:30:14.528Z,65.64
2022-09-02T08:32:41.902Z,65.47
2022-09-02T08:35:10.342Z,64.82
2022-09-02T08:37:37.486Z,64.59
2022-09-02T08:40:07.567Z,63.91
2022-09-02T08:42:41.847Z,64.00
2022-09-02T08:45:20.049Z,63.55
2022-09-02T08:47:53.006Z,62.46
2022-09-02T08:50:20.576Z,61.14
2022-09-02T08:53:02.507Z,60.93
2022-09-02T08:55:39.995Z,60.41
2022-09-02T09:00:42.443Z,59.47
2022-09-02T09:03:33.650Z,59.43
2022-09-02T09:06:16.299Z,59.36
2022-09-02T09:08:57.470Z,59.13
2022-09-02T09:11:34.834Z,58.96
2022-09-02T09:14:06.444Z,57.92
2022-09-02T09:16:44.372Z,56.91
2022-09-02T09:19:22.510Z,56.81
2022-09-02T09:21:49.144Z,57.19
2022-09-02T09:24:49.819Z,56.48
2022-09-02T09:27:19.825Z,56.19
2022-09-02T09:29:50.195Z,55.76
2022-09-02T09:32:22.683Z,56.35
2022-09-02T09:34:52.367Z,55.88
2022-09-02T09:37:42.302Z,53.69
2022-09-02T09:40:17.893Z,53.99
2022-09-02T09:42:49.698Z,54.31
2022-09-02T09:45:24.089Z,54.13
2022-09-02T09:48:29.982Z,53.82
2022-09-02T09:50:56.500Z,53.74
2022-09-02T09:53:25.582Z,53.44
2022-09-02T09:55:55.253Z,53.02
2022-09-02T09:58:23.457Z,51.82
2022-09-02T10:00:56.391Z,51.09
2022-09-02T10:03:33.080Z,50.51
2022-09-02T10:06:17.988Z,50.76
2022-09-02T10:08:56.842Z,50.63
2022-09-02T10:11:26.396Z,49.89
2022-09-02T10:13:59.731Z,49.73
2022-09-02T10:16:50.055Z,49.86
2022-09-02T10:19:31.298Z,49.06
2022-09-02T10:21:58.130Z,48.86
2022-09-02T10:24:56.026Z,48.86
2022-09-02T10:27:37.424Z,48.43
2022-09-02T10:30:41.199Z,47.40
2022-09-02T10:33:25.318Z,47.07
2022-09-02T10:35:57.912Z,46.83
2022-09-02T10:38:46.687Z,47.17
2022-09-02T10:41:27.246Z,46.67
2022-09-02T10:43:59.876Z,46.51
2022-09-02T10:46:34.438Z,46.41
2022-09-02T10:49:16.479Z,46.17
2022-09-02T10:51:52.179Z,46.26
2022-09-02T10:55:17.582Z,46.05
2022-09-02T10:57:52.881Z,45.51
2022-09-02T11:00:21.427Z,45.83
2022-09-02T11:02:54.503Z,46.26
2022-09-02T11:05:59.879Z,45.52
2022-09-02T11:08:49.343Z,44.88
2022-09-02T11:11:21.931Z,44.77
2022-09-02T11:14:15.617Z,44.72
2022-09-02T11:17:18.789Z,44.63
2022-09-02T11:20:04.239Z,44.50
2022-09-02T11:22:48.961Z,44.42
2022-09-02T11:25:15.596Z,44.27
2022-09-02T11:27:52.818Z,43.61
2022-09-02T11:30:22.321Z,43.45
2022-09-02T11:33:34.649Z,42.83
2022-09-02T11:36:01.605Z,42.60
2022-09-02T11:38:43.750Z,42.87
2022-09-02T11:41:43.467Z,42.70
2022-09-02T11:44:31.548Z,42.88
2022-09-02T11:47:31.999Z,42.45
2022-09-02T11:50:23.119Z,41.92
2022-09-02T11:53:17.128Z,41.60
2022-09-02T11:55:56.242Z,41.05
2022-09-02T11:58:38.377Z,40.77
2022-09-02T12:01:15.070Z,40.80
2022-09-02T12:04:27.532Z,40.72
2022-09-02T12:07:07.873Z,40.09
2022-09-02T12:09:52.982Z,39.92
2022-09-02T12:12:42.930Z,40.25
2022-09-02T12:15:17.638Z,39.96
2022-09-02T12:17:50.941Z,39.35
2022-09-02T12:20:36.480Z,38.95
2022-09-02T12:23:03.629Z,38.67
2022-09-02T12:25:34.016Z,37.95
2022-09-02T12:28:19.187Z,37.86
2022-09-02T12:30:56.512Z,38.02
2022-09-02T12:33:34.983Z,37.05
2022-09-02T12:36:04.822Z,37.33
2022-09-02T12:38:34.078Z,37.17
2022-09-02T12:41:07.718Z,36.73
2022-09-02T12:43:41.657Z,36.89
2022-09-02T12:46:23.016Z,36.05
2022-09-02T12:49:05.758Z,35.96
2022-09-02T12:51:57.522Z,36.07
2022-09-02T12:54:41.543Z,35.62
2022-09-02T12:57:10.258Z,35.38
2022-09-02T12:59:41.412Z,35.35
2022-09-02T13:02:26.868Z,35.27
2022-09-02T13:04:56.255Z,35.10
2022-09-02T13:07:44.522Z,35.56
2022-09-02T13:10:14.534Z,35.22
2022-09-02T13:13:18.266Z,35.45
2022-09-02T13:16:16.944Z,35.15
2022-09-02T13:19:11.005Z,34.39
2022-09-02T13:22:04.569Z,34.32
2022-09-02T13:25:01.246Z,34.39
2022-09-02T13:27:46.541Z,33.96
2022-09-02T13:30:26.265Z,33.59
2022-09-02T13:33:00.225Z,34.17
2022-09-02T13:35:28.823Z,34.20
2022-09-02T13:37:59.794Z,33.96
2022-09-02T13:40:37.229Z,33.73
2022-09-02T13:43:12.804Z,33.81
2022-09-02T13:45:40.136Z,33.31
2022-09-02T13:48:19.273Z,32.87
2022-09-02T13:50:48.893Z,33.27
2022-09-02T13:53:45.841Z,33.43
2022-09-02T13:56:17.693Z,32.80
2022-09-02T13:58:51.990Z,32.42
2022-09-02T14:01:24.964Z,32.53
2022-09-02T14:03:54.766Z,32.71
2022-09-02T14:06:25.263Z,32.96
2022-09-02T14:08:55.758Z,32.84
2022-09-02T14:11:23.022Z,32.90
2022-09-02T14:13:51.035Z,33.03
2022-09-02T14:16:24.423Z,33.30
2022-09-02T14:19:14.447Z,32.81
2022-09-02T14:21:48.212Z,33.31
2022-09-02T14:24:19.952Z,32.74
2022-09-02T14:26:49.899Z,33.04
2022-09-02T14:29:18.975Z,32.81
2022-09-02T14:31:46.544Z,32.61
2022-09-02T14:34:32.286Z,32.46
2022-09-02T14:36:58.946Z,32.27
2022-09-02T14:39:25.678Z,32.62
2022-09-02T14:41:54.830Z,32.30
2022-09-02T14:44:34.649Z,32.96
2022-09-02T14:47:07.482Z,33.10
2022-09-02T14:49:41.974Z,32.57
2022-09-02T14:52:23.382Z,32.69
2022-09-02T14:54:53.091Z,32.54
2022-09-02T14:57:28.707Z,32.29
2022-09-02T15:00:02.306Z,32.55
2022-09-02T15:02:32.677Z,32.28
2022-09-02T15:05:01.388Z,31.91
2022-09-02T15:07:28.747Z,32.01
2022-09-02T15:09:55.434Z,31.74
2022-09-02T15:12:34.063Z,31.97
2022-09-02T15:15:01.047Z,32.05
2022-09-02T15:17:29.514Z,32.20
2022-09-02T15:19:56.600Z,32.31
2022-09-02T15:22:23.912Z,32.80
2022-09-02T15:24:51.833Z,32.46
2022-09-02T15:27:21.494Z,32.48
2022-09-02T15:29:49.029Z,31.85
2022-09-02T15:32:16.212Z,32.28
2022-09-02T15:34:42.791Z,32.32
2022-09-02T15:37:12.799Z,32.41
2022-09-02T15:39:40.783Z,31.91
2022-09-02T15:42:07.502Z,32.00
2022-09-02T15:44:34.158Z,32.28
2022-09-02T15:47:00.768Z,31.70
2022-09-02T15:49:27.559Z,31.79
2022-09-02T15:51:55.223Z,32.11
2022-09-02T15:54:23.888Z,32.32
2022-09-02T15:56:55.500Z,32.28
2022-09-02T15:59:22.478Z,32.38
2022-09-02T16:01:51.865Z,32.99
2022-09-02T16:04:18.570Z,32.49
2022-09-02T16:06:52.316Z,32.92
2022-09-02T16:09:19.847Z,33.26
2022-09-02T16:11:52.600Z,33.14
2022-09-02T16:14:21.393Z,33.63
2022-09-02T16:16:49.888Z,33.65
2022-09-02T16:19:21.317Z,34.13
2022-09-02T16:21:49.295Z,34.35
2022-09-02T16:24:15.942Z,35.22
2022-09-02T16:26:42.621Z,35.22
2022-09-02T16:29:16.001Z,35.68
2022-09-02T16:31:45.890Z,35.80
2022-09-02T16:34:24.072Z,35.55
2022-09-02T16:36:51.780Z,35.56
2022-09-02T16:39:19.838Z,35.95
2022-09-02T16:41:52.186Z,36.76
2022-09-02T16:44:24.063Z,37.32
2022-09-02T16:46:52.502Z,37.59
2022-09-02T16:49:21.908Z,38.22
2022-09-02T16:51:50.848Z,38.99
2022-09-02T16:54:30.876Z,39.09
2022-09-02T16:56:59.595Z,39.73
2022-09-02T16:59:26.202Z,39.96
2022-09-02T17:01:52.925Z,40.24
2022-09-02T17:04:19.584Z,40.43
2022-09-02T17:06:46.187Z,40.59
2022-09-02T17:09:12.802Z,40.64
2022-09-02T17:11:41.321Z,41.17
2022-09-02T17:14:18.048Z,41.49
2022-09-02T17:16:47.151Z,41.84
2022-09-02T17:19:20.837Z,41.94
2022-09-02T17:21:56.904Z,42.26
2022-09-02T17:24:27.691Z,42.75
2022-09-02T17:26:56.264Z,42.82
2022-09-02T17:29:48.980Z,43.16
2022-09-02T17:32:15.865Z,43.21
2022-09-02T17:34:42.448Z,43.29
2022-09-02T17:37:09.129Z,43.58
2022-09-02T17:39:35.759Z,43.72
2022-09-02T17:42:05.263Z,43.95
2022-09-02T17:44:35.920Z,44.03
2022-09-02T17:47:07.563Z,44.44
2022-09-02T17:49:37.760Z,44.49
2022-09-02T17:52:07.417Z,44.50
2022-09-02T17:54:38.623Z,45.14
2022-09-02T17:57:17.385Z,44.94
2022-09-02T17:59:51.940Z,45.32
2022-09-02T18:02:43.356Z,45.55
2022-09-02T18:05:21.381Z,45.80
2022-09-02T18:08:39.256Z,45.77
2022-09-02T18:11:07.796Z,46.13
2022-09-02T18:13:34.385Z,46.22
2022-09-02T18:16:28.753Z,46.42
2022-09-02T18:19:06.618Z,46.51
2022-09-02T18:21:59.860Z,46.55
2022-09-02T18:25:04.196Z,46.90
2022-09-02T18:27:40.770Z,47.19
2022-09-02T18:30:10.336Z,47.85
2022-09-02T18:32:59.393Z,47.80
2022-09-02T18:35:44.110Z,47.76
2022-09-02T18:38:19.486Z,48.31
2022-09-02T18:40:57.011Z,48.27
2022-09-02T18:43:55.399Z,48.45
2022-09-02T18:46:24.986Z,48.81
2022-09-02T18:49:03.472Z,48.88
2022-09-02T18:51:39.005Z,49.11
2022-09-02T18:54:23.039Z,49.30
2022-09-02T18:56:58.841Z,49.33
2022-09-02T18:59:42.071Z,49.43
2022-09-02T19:02:23.936Z,49.61
2022-09-02T19:04:50.651Z,49.78
2022-09-02T19:07:38.499Z,49.77
2022-09-02T19:10:06.386Z,49.96
2022-09-02T19:12:34.991Z,50.06
2022-09-02T19:15:06.214Z,50.25
2022-09-02T19:17:32.710Z,50.23
2022-09-02T19:19:59.259Z,50.40
2022-09-02T19:22:28.346Z,50.55
2022-09-02T19:25:02.849Z,50.76
2022-09-02T19:27:33.755Z,50.99
2022-09-02T19:30:08.479Z,51.15
2022-09-02T19:32:37.902Z,51.09
2022-09-02T19:35:16.297Z,51.22
2022-09-02T19:37:45.070Z,51.43
2022-09-02T19:40:12.325Z,51.36
2022-09-02T19:42:39.028Z,51.47
2022-09-02T19:45:06.120Z,51.68
2022-09-02T19:50:21.070Z,51.55
2022-09-02T19:52:49.403Z,51.70
2022-09-02T19:55:18.344Z,51.58
2022-09-02T19:57:45.787Z,51.63
2022-09-02T20:00:14.065Z,51.69
2022-09-02T20:02:40.983Z,51.75
2022-09-02T20:05:12.960Z,51.98
2022-09-02T20:07:40.615Z,51.84
2022-09-02T20:10:08.844Z,51.92
2022-09-02T20:12:36.475Z,52.09
2022-09-02T20:15:04.877Z,51.94
2022-09-02T20:17:31.686Z,52.20
2022-09-02T20:20:01.294Z,52.24
2022-09-02T20:22:31.734Z,52.40
2022-09-02T20:24:58.428Z,52.48
2022-09-02T20:27:54.813Z,52.60
2022-09-02T20:30:21.719Z,52.40
2022-09-02T20:32:57.381Z,52.69
2022-09-02T20:35:34.014Z,52.75
2022-09-02T20:38:20.548Z,53.12
2022-09-02T20:41:20.103Z,53.16
2022-09-02T20:44:11.451Z,53.25
2022-09-02T20:46:41.035Z,53.55
2022-09-02T20:49:41.884Z,53.45
2022-09-02T20:52:19.515Z,53.57
2022-09-02T20:54:48.137Z,53.80
2022-09-02T20:57:36.932Z,54.08
2022-09-02T21:00:08.880Z,54.02
2022-09-02T21:02:57.840Z,53.90
2022-09-02T21:05:32.923Z,53.97
2022-09-02T21:08:12.880Z,54.00
2022-09-02T21:10:45.904Z,54.04
2022-09-02T21:13:27.536Z,54.35
2022-09-02T21:15:57.327Z,53.82
2022-09-02T21:18:44.529Z,54.11
2022-09-02T21:21:43.086Z,54.26
2022-09-02T21:24:19.020Z,54.37
2022-09-02T21:27:25.399Z,54.81
2022-09-02T21:30:04.588Z,55.16
2022-09-02T21:32:45.334Z,55.21
2022-09-02T21:35:42.528Z,55.83
2022-09-02T21:38:22.287Z,56.27
2022-09-02T21:41:27.176Z,56.47
2022-09-02T21:44:11.392Z,56.50
2022-09-02T21:47:01.591Z,57.03
2022-09-02T21:49:39.441Z,57.46
2022-09-02T21:52:15.061Z,57.43
2022-09-02T21:55:01.259Z,57.77
2022-09-02T21:57:37.571Z,57.54
2022-09-02T22:00:12.990Z,57.32
2022-09-02T22:03:10.390Z,57.18
2022-09-02T22:06:13.636Z,57.50
2022-09-02T22:08:48.390Z,57.51
2022-09-02T22:11:41.610Z,57.47
2022-09-02T22:14:14.851Z,57.08
2022-09-02T22:16:47.136Z,57.04
2022-09-02T22:19:14.594Z,57.03
2022-09-02T22:21:48.535Z,56.92
2022-09-02T22:24:20.303Z,56.63
2022-09-02T22:26:54.421Z,56.49
2022-09-02T22:29:45.727Z,56.73
2022-09-02T22:32:31.796Z,56.64
2022-09-02T22:35:22.882Z,56.45
2022-09-02T22:37:58.378Z,56.56
2022-09-02T22:40:32.381Z,56.49
2022-09-02T22:43:06.944Z,56.86
2022-09-02T22:46:01.615Z,56.92
2022-09-02T22:48:57.644Z,57.01
2022-09-02T22:51:50.035Z,56.93
2022-09-02T22:54:17.474Z,56.94
2022-09-02T22:56:52.885Z,57.11
2022-09-02T22:59:50.192Z,57.09
2022-09-02T23:02:18.054Z,57.46
2022-09-02T23:05:37.689Z,57.49
2022-09-02T23:08:08.933Z,57.58
2022-09-02T23:10:54.329Z,57.56
2022-09-02T23:13:42.822Z,57.58
2022-09-02T23:16:19.975Z,57.44
2022-09-02T23:19:11.923Z,57.64
2022-09-02T23:21:54.405Z,57.78
2022-09-02T23:24:53.181Z,58.24
2022-09-02T23:27:45.062Z,58.33
2022-09-02T23:30:14.748Z,58.61
2022-09-02T23:33:02.650Z,58.66
2022-09-02T23:35:48.167Z,58.90
2022-09-02T23:38:22.775Z,58.97
2022-09-02T23:41:18.457Z,59.06
2022-09-02T23:43:45.747Z,59.27
2022-09-02T23:46:47.335Z,59.22
2022-09-02T23:49:36.204Z,59.48
2022-09-02T23:52:24.009Z,59.75
2022-09-02T23:55:11.929Z,59.87
2022-09-02T23:57:42.633Z,59.71
